map of KHY home
KHY - Airport
Location
City:  Khoy, Azarbayjan-e Gharbi, Iran
Near (Alt.):Qotar
ICAO:OITK
IATA:KHY

Details
Type:Airport (Aerodrome, Airfield)
Latitude:3825'39"N (38.427453)
Longitude:4458'25"E (44.973575)
Datum:WGS 1984
Elevation:3981 ft (1213 m)
Variation:5.80E (WMM2015 magnetic declination)
0.07 annual change
Runways:1
Longest:9190 × 98 ft (2801 × 30 m), paved

Time
Time Zone:UTC+3:30 (DST+4:30)
Local Time:

Weather
METAR:OITK 201000Z 16004KT 9999 FEW035TCU BKN180 22/05 Q1018

Related Locations
Nearby:
Farthest:GMR: 11373 mi / 18303 km
Mangareva [Totegegie], Gambier Islands, PF

Find:

   beyond  
but within

Other Information
Maps:
NOTAMs:
Links:
Sources:

  
  • flag of Iran
  

Sectional Chart

Flight Planning
at skyvector.com

Satellite Image

Google Maps Satellite view

 

Copyright © 2004-2018 Karl L. Swartz. All rights reserved.
The Great Circle Mapper name and logo are trademarks of the Great Circle Mapper.
All other trademarks mentioned herein belong to their respective owners.
Please see credits for attibutions and further copyright information.

  Follow gcmap on Facebook Follow gcmap on Twitter Follow gcmap on Google+ GCmap on LinkedIn

hCard Microformat

Geo Microformat